Time;durP1;ratioP1;P1;durP2;ratioP2;P2;SDS_P1;SDS_P2;PMS_P1;PMS_P2;Temp;Humidity;BMP_temperature;BMP_pressure;BME280_temperature;BME280_humidity;BME280_pressure;Samples;Min_cycle;Max_cycle;Signal;HPM_P1;HPM_P2
2023/08/03 00:02:12;;;;;;;4.07;1.10;;;18.20;99.90;;;;;;4925800;29;20340;-76
2023/08/03 00:04:37;;;;;;;6.13;1.27;;;18.30;99.90;;;;;;4926060;29;20032;-75
2023/08/03 00:07:03;;;;;;;7.15;1.40;;;18.30;99.90;;;;;;4926062;29;20040;-75
2023/08/03 00:09:29;;;;;;;5.93;1.40;;;18.40;99.90;;;;;;4926425;29;20218;-75
2023/08/03 00:11:55;;;;;;;6.43;1.10;;;18.40;99.90;;;;;;4926084;29;20305;-76
2023/08/03 00:14:20;;;;;;;5.85;1.35;;;18.50;99.90;;;;;;4925778;29;20027;-74
2023/08/03 00:16:46;;;;;;;5.32;1.23;;;18.50;99.90;;;;;;4926197;29;20028;-76
2023/08/03 00:19:12;;;;;;;6.38;1.20;;;18.60;99.90;;;;;;4925909;29;20243;-76
2023/08/03 00:21:37;;;;;;;6.03;1.10;;;18.70;99.90;;;;;;4926312;29;20091;-76
2023/08/03 00:24:03;;;;;;;7.15;1.45;;;18.80;99.90;;;;;;4925767;29;20378;-76
2023/08/03 00:26:29;;;;;;;4.55;1.20;;;18.80;99.90;;;;;;4925985;29;20036;-76
2023/08/03 00:28:55;;;;;;;6.72;1.30;;;18.80;99.90;;;;;;4926187;29;20309;-75
2023/08/03 09:40:59;;;;;;;1.88;0.28;;;23.00;79.00;;;;;;5364837;23;20093;-72
2023/08/03 09:43:26;;;;;;;1.58;0.20;;;23.00;78.00;;;;;;4946888;29;20316;-73
2023/08/03 09:45:53;;;;;;;1.92;0.30;;;22.90;78.80;;;;;;4946846;29;20304;-71
2023/08/03 09:48:20;;;;;;;2.28;0.30;;;22.80;78.90;;;;;;4946670;29;20055;-70
2023/08/03 09:50:51;;;;;;;1.02;0.20;;;23.10;79.10;;;;;;4946127;29;20032;-73
2023/08/03 09:53:21;;;;;;;2.55;0.40;;;23.20;78.20;;;;;;4946841;29;20039;-71
2023/08/03 09:55:53;;;;;;;1.45;0.22;;;23.20;78.50;;;;;;4947002;29;20071;-73
2023/08/03 09:58:37;;;;;;;2.20;0.40;;;23.20;78.40;;;;;;4945911;29;20305;-72
2023/08/03 10:01:04;;;;;;;3.40;0.28;;;23.10;78.80;;;;;;4927599;29;20032;-73
2023/08/03 10:03:31;;;;;;;1.90;0.20;;;23.30;78.20;;;;;;4941949;29;20210;-72
2023/08/03 10:06:10;;;;;;;2.57;0.20;;;23.70;77.50;;;;;;4913938;29;20086;-73
2023/08/03 10:08:52;;;;;;;2.75;0.57;;;23.60;77.40;;;;;;4946397;29;20439;-73
2023/08/03 10:11:20;;;;;;;1.77;0.22;;;23.60;77.20;;;;;;4946434;29;20041;-73
2023/08/03 10:13:47;;;;;;;1.75;0.25;;;23.40;78.00;;;;;;4945739;29;20079;-70
2023/08/03 10:16:17;;;;;;;2.85;0.25;;;23.30;78.10;;;;;;4946355;29;20039;-75
2023/08/03 10:18:43;;;;;;;1.40;0.20;;;23.10;78.30;;;;;;4929000;29;20262;-72
2023/08/03 10:21:10;;;;;;;2.33;0.30;;;23.30;78.10;;;;;;4946292;29;20035;-73
2023/08/03 10:23:39;;;;;;;2.97;0.50;;;23.30;78.60;;;;;;4946056;29;20031;-74
2023/08/03 10:26:07;;;;;;;3.28;0.43;;;23.40;78.40;;;;;;4946719;29;20094;-73
2023/08/03 10:28:39;;;;;;;2.67;0.20;;;23.40;77.60;;;;;;4946017;29;20234;-74
2023/08/03 10:31:18;;;;;;;2.28;0.22;;;23.50;77.80;;;;;;4945651;29;20027;-75
2023/08/03 10:33:46;;;;;;;2.35;0.45;;;23.60;78.00;;;;;;4945705;29;20257;-72
2023/08/03 10:36:27;;;;;;;2.38;0.28;;;23.50;77.60;;;;;;4946227;29;20057;-73
2023/08/03 10:39:03;;;;;;;1.75;0.20;;;23.70;77.10;;;;;;4945620;29;20031;-72
2023/08/03 10:41:37;;;;;;;2.67;0.40;;;23.50;77.50;;;;;;4950652;28;20208;-71
2023/08/03 10:44:06;;;;;;;1.98;0.30;;;23.60;77.60;;;;;;4929182;29;20038;-73
2023/08/03 10:46:47;;;;;;;2.15;0.35;;;23.20;77.60;;;;;;4945960;29;20035;-76
2023/08/03 10:49:19;;;;;;;1.83;0.30;;;23.30;78.20;;;;;;4946120;29;20042;-72
2023/08/03 10:51:46;;;;;;;2.65;0.40;;;23.10;77.60;;;;;;4949927;29;20499;-71
2023/08/03 10:54:12;;;;;;;2.00;0.28;;;22.90;78.00;;;;;;4946578;29;20070;-72
2023/08/03 10:57:04;;;;;;;2.55;0.40;;;23.00;78.30;;;;;;4961112;29;20055;-73
2023/08/03 10:59:44;;;;;;;11.45;0.85;;;23.30;77.60;;;;;;4964520;29;20034;-72
2023/08/03 11:02:18;;;;;;;1.33;0.45;;;23.50;77.20;;;;;;4964522;29;20058;-72
2023/08/03 11:04:45;;;;;;;0.90;0.20;;;23.50;76.80;;;;;;4941806;29;20220;-73
2023/08/03 11:07:15;;;;;;;1.73;0.32;;;23.70;75.80;;;;;;4939944;29;20098;-74
2023/08/03 11:09:44;;;;;;;3.33;0.35;;;24.00;75.90;;;;;;4963051;29;20069;-74
2023/08/03 11:12:10;;;;;;;1.35;0.20;;;24.00;75.60;;;;;;4961636;29;20313;-74
2023/08/03 11:14:36;;;;;;;2.25;0.40;;;24.00;75.40;;;;;;4962980;29;20023;-73
2023/08/03 11:17:02;;;;;;;2.25;0.25;;;24.00;75.80;;;;;;4963466;29;20055;-75
2023/08/03 11:19:32;;;;;;;1.58;0.43;;;24.30;75.90;;;;;;4963657;29;20110;-74
2023/08/03 11:21:59;;;;;;;1.05;0.20;;;24.20;74.60;;;;;;4962567;29;20070;-75
2023/08/03 11:24:31;;;;;;;1.20;0.22;;;24.20;75.20;;;;;;4946811;29;20347;-73
2023/08/03 11:27:01;;;;;;;2.60;0.40;;;24.50;74.70;;;;;;4962838;29;20035;-73
2023/08/03 11:29:27;;;;;;;3.45;0.40;;;24.60;73.80;;;;;;4963861;29;20082;-73
2023/08/03 11:31:53;;;;;;;6.22;0.63;;;25.00;73.90;;;;;;4962829;29;20050;-75
2023/08/03 11:34:20;;;;;;;1.92;0.40;;;25.10;72.80;;;;;;4965255;28;20041;-74
2023/08/03 11:36:50;;;;;;;5.55;0.50;;;24.70;73.10;;;;;;4963214;28;20325;-74
2023/08/03 11:39:17;;;;;;;2.45;0.30;;;24.40;73.90;;;;;;4946222;29;20035;-75
2023/08/03 11:41:44;;;;;;;2.33;0.30;;;24.70;74.10;;;;;;4961540;28;20333;-73
2023/08/03 11:44:10;;;;;;;2.40;0.25;;;24.90;73.10;;;;;;4963093;29;20031;-74
2023/08/03 11:46:36;;;;;;;2.45;0.20;;;25.10;73.50;;;;;;4962421;29;20058;-76
2023/08/03 11:49:03;;;;;;;2.55;0.30;;;25.30;72.20;;;;;;4961198;29;20027;-74
2023/08/03 11:51:37;;;;;;;1.15;0.20;;;26.10;71.00;;;;;;4958917;29;20304;-73
2023/08/03 11:54:07;;;;;;;1.15;0.20;;;26.40;69.80;;;;;;4963354;29;20061;-76
2023/08/03 11:56:37;;;;;;;1.35;0.20;;;25.90;70.50;;;;;;4963163;29;20066;-75
2023/08/03 11:59:09;;;;;;;2.03;0.25;;;26.20;70.30;;;;;;4960531;29;20039;-75
2023/08/03 12:01:48;;;;;;;2.03;0.30;;;26.80;70.30;;;;;;4962355;29;20047;-75
2023/08/03 12:04:15;;;;;;;3.75;0.40;;;26.80;70.00;;;;;;4961590;29;20090;-75
2023/08/03 12:06:46;;;;;;;1.95;0.60;;;27.10;69.30;;;;;;4962710;29;20055;-75
2023/08/03 12:09:24;;;;;;;1.52;0.22;;;27.90;68.30;;;;;;4962129;29;20051;-75
2023/08/03 12:11:52;;;;;;;2.35;0.20;;;28.20;66.40;;;;;;4962460;29;20058;-74
2023/08/03 12:14:18;;;;;;;1.50;0.57;;;28.20;66.50;;;;;;4962728;29;20368;-75
2023/08/03 12:16:44;;;;;;;1.45;0.22;;;27.80;67.90;;;;;;4962186;29;20039;-75
2023/08/03 12:19:09;;;;;;;4.03;0.40;;;27.90;67.60;;;;;;4929791;29;20633;-75
2023/08/03 12:21:39;;;;;;;2.97;0.25;;;27.80;66.20;;;;;;4962615;29;20035;-76
2023/08/03 12:24:06;;;;;;;2.85;0.43;;;27.90;66.30;;;;;;4945409;29;20054;-74
2023/08/03 12:26:32;;;;;;;3.30;0.60;;;27.40;66.20;;;;;;4945607;29;20046;-75
2023/08/03 12:28:57;;;;;;;0.95;0.20;;;27.80;66.30;;;;;;4962069;29;20023;-75
2023/08/03 12:31:24;;;;;;;1.20;0.20;;;28.00;65.10;;;;;;4963081;29;20131;-74
2023/08/03 12:33:50;;;;;;;1.52;0.15;;;28.10;65.40;;;;;;4946176;29;20043;-75
2023/08/03 12:36:17;;;;;;;1.42;0.20;;;28.10;64.50;;;;;;4950915;29;20067;-72
2023/08/03 12:38:43;;;;;;;3.03;0.50;;;28.50;64.80;;;;;;4944001;29;20028;-73
2023/08/03 12:41:09;;;;;;;2.28;0.20;;;28.80;63.90;;;;;;4924230;29;20115;-73
2023/08/03 12:43:35;;;;;;;2.88;0.30;;;28.70;63.40;;;;;;4940034;29;20075;-74
2023/08/03 12:46:01;;;;;;;1.65;0.30;;;29.10;63.10;;;;;;4943968;29;20237;-74
2023/08/03 12:48:27;;;;;;;1.27;0.10;;;30.70;62.00;;;;;;4943023;29;20241;-74
2023/08/03 12:50:53;;;;;;;2.83;0.30;;;31.30;60.60;;;;;;4927433;29;20028;-77
2023/08/03 12:53:18;;;;;;;0.70;0.20;;;30.20;61.70;;;;;;4925341;29;20044;-75
2023/08/03 12:55:44;;;;;;;1.77;0.40;;;29.60;63.10;;;;;;4928388;29;20087;-75
2023/08/03 12:58:11;;;;;;;4.25;0.20;;;29.90;62.40;;;;;;4929006;29;20044;-73
2023/08/03 13:00:37;;;;;;;1.30;0.22;;;30.00;61.10;;;;;;4928842;29;20036;-76
2023/08/03 13:03:04;;;;;;;2.85;0.30;;;31.20;60.30;;;;;;4928475;29;20035;-75
2023/08/03 13:05:32;;;;;;;2.83;0.30;;;32.20;58.60;;;;;;4928553;29;20032;-73
2023/08/03 13:07:58;;;;;;;2.67;0.50;;;33.00;58.00;;;;;;4928640;29;20051;-74
2023/08/03 13:10:24;;;;;;;2.38;0.82;;;33.80;57.10;;;;;;4928427;29;20032;-74
2023/08/03 13:12:50;;;;;;;0.73;0.10;;;31.60;58.60;;;;;;4927050;29;20040;-74
2023/08/03 13:15:15;;;;;;;0.93;0.10;;;29.80;61.00;;;;;;4935908;29;20083;-74
2023/08/03 13:17:41;;;;;;;1.92;0.30;;;29.60;61.60;;;;;;4947396;29;20043;-75
2023/08/03 13:20:08;;;;;;;1.25;0.40;;;29.80;61.70;;;;;;4947420;29;20317;-73
2023/08/03 13:22:34;;;;;;;2.55;0.30;;;29.00;63.40;;;;;;4945943;29;20175;-74
2023/08/03 13:25:00;;;;;;;1.90;0.30;;;29.60;63.10;;;;;;4947123;29;20093;-74
2023/08/03 13:27:27;;;;;;;1.80;0.30;;;30.10;62.50;;;;;;4937439;29;20065;-72
2023/08/03 13:29:53;;;;;;;1.90;0.40;;;31.30;60.10;;;;;;4930494;29;20195;-75
2023/08/03 13:32:20;;;;;;;1.33;0.20;;;33.70;57.60;;;;;;4927971;29;20040;-74
2023/08/03 13:34:46;;;;;;;2.08;0.55;;;33.40;56.20;;;;;;4928210;29;20039;-75
2023/08/03 13:37:12;;;;;;;0.95;0.20;;;32.00;57.70;;;;;;4947625;29;20023;-74
2023/08/03 13:39:38;;;;;;;1.38;0.30;;;32.00;57.80;;;;;;4945965;29;20022;-75
2023/08/03 13:42:04;;;;;;;1.40;0.15;;;33.10;57.10;;;;;;4965829;28;20074;-73
2023/08/03 13:44:30;;;;;;;1.73;0.20;;;32.90;56.10;;;;;;4949368;29;20024;-74
2023/08/03 13:46:57;;;;;;;1.77;0.40;;;33.60;58.00;;;;;;4965781;28;20023;-74
2023/08/03 13:49:23;;;;;;;2.78;0.43;;;34.90;55.20;;;;;;4966397;28;20041;-74
2023/08/03 13:51:49;;;;;;;4.30;0.45;;;36.20;55.10;;;;;;4965762;28;20059;-75
2023/08/03 13:54:15;;;;;;;2.65;0.50;;;38.60;52.00;;;;;;4949646;28;20123;-74
2023/08/03 13:56:40;;;;;;;1.33;0.20;;;38.30;50.80;;;;;;4946431;29;20038;-76
2023/08/03 13:59:06;;;;;;;1.52;0.30;;;36.90;51.20;;;;;;4946943;29;20111;-74
2023/08/03 14:01:36;;;;;;;1.88;0.10;;;35.70;52.10;;;;;;4947221;29;20040;-73
2023/08/03 14:04:03;;;;;;;1.58;0.20;;;36.00;52.40;;;;;;4965113;28;20027;-74
2023/08/03 14:06:28;;;;;;;3.08;0.30;;;35.50;52.40;;;;;;4964792;29;20058;-74
2023/08/03 14:08:54;;;;;;;2.55;0.22;;;35.10;53.20;;;;;;4948606;29;20313;-74
2023/08/03 14:11:20;;;;;;;1.20;0.20;;;34.30;53.10;;;;;;4965764;29;20030;-73
2023/08/03 14:13:46;;;;;;;0.80;0.20;;;33.80;54.00;;;;;;4965462;29;20058;-73
2023/08/03 14:16:13;;;;;;;1.70;0.30;;;33.90;53.50;;;;;;4966097;29;20070;-73
2023/08/03 14:18:39;;;;;;;1.48;0.20;;;32.90;54.70;;;;;;4948996;29;20313;-74
2023/08/03 14:21:05;;;;;;;2.03;0.13;;;34.00;54.10;;;;;;4965319;29;20101;-74
2023/08/03 14:23:31;;;;;;;1.95;0.20;;;34.40;53.20;;;;;;4965779;29;20039;-75
2023/08/03 14:25:57;;;;;;;1.45;0.20;;;32.70;54.50;;;;;;4948419;29;20300;-74
2023/08/03 14:28:22;;;;;;;1.83;0.50;;;33.20;54.20;;;;;;4965681;29;20034;-74
2023/08/03 14:30:48;;;;;;;1.08;0.20;;;32.60;54.50;;;;;;4965321;29;20042;-75
2023/08/03 14:33:14;;;;;;;0.63;0.10;;;33.90;54.10;;;;;;4965576;29;20356;-75
2023/08/03 14:35:40;;;;;;;3.00;0.20;;;33.70;53.00;;;;;;4965669;29;20037;-74
2023/08/03 14:38:07;;;;;;;1.25;0.20;;;33.50;52.90;;;;;;4964914;28;20035;-75
2023/08/03 14:40:37;;;;;;;0.55;0.13;;;33.30;52.20;;;;;;4948237;29;20345;-75
2023/08/03 14:43:03;;;;;;;1.45;0.20;;;32.80;53.20;;;;;;4965300;29;20043;-75
2023/08/03 14:45:29;;;;;;;2.33;0.38;;;32.20;53.50;;;;;;4948178;29;20058;-75
2023/08/03 14:47:56;;;;;;;0.95;0.10;;;32.60;53.80;;;;;;4964807;29;20031;-76
2023/08/03 14:50:21;;;;;;;1.05;0.20;;;32.20;53.60;;;;;;4965477;28;20023;-74
2023/08/03 14:52:47;;;;;;;0.88;0.10;;;32.00;54.60;;;;;;4947890;29;20054;-74
2023/08/03 14:55:13;;;;;;;0.65;0.10;;;32.90;53.50;;;;;;4965253;28;20054;-74
2023/08/03 14:57:39;;;;;;;3.05;0.30;;;31.80;53.90;;;;;;4965172;29;20198;-75
2023/08/03 15:00:06;;;;;;;2.50;0.10;;;30.20;56.80;;;;;;4964539;28;20098;-75
2023/08/03 15:02:33;;;;;;;0.90;0.20;;;28.80;58.70;;;;;;4957818;28;20055;-73
2023/08/03 15:05:00;;;;;;;1.48;0.10;;;29.30;61.80;;;;;;4945195;29;20079;-73
2023/08/03 15:07:26;;;;;;;2.40;0.30;;;30.10;59.60;;;;;;4928965;29;20031;-74
2023/08/03 15:09:52;;;;;;;0.70;0.10;;;29.60;58.00;;;;;;4945544;29;20058;-72
2023/08/03 15:12:18;;;;;;;0.77;0.13;;;29.70;58.20;;;;;;4928959;29;20039;-73
2023/08/03 15:14:44;;;;;;;1.80;0.32;;;28.70;60.10;;;;;;4949909;29;20241;-73
2023/08/03 15:17:10;;;;;;;1.50;0.20;;;29.10;61.20;;;;;;4964736;28;20331;-72
2023/08/03 15:19:36;;;;;;;1.55;0.28;;;29.00;61.00;;;;;;4965078;29;20031;-72
2023/08/03 15:22:02;;;;;;;1.98;0.20;;;29.00;62.90;;;;;;4947218;29;20198;-74
2023/08/03 15:24:28;;;;;;;0.93;0.10;;;28.50;60.40;;;;;;4947383;29;20027;-74
2023/08/03 15:26:54;;;;;;;0.70;0.15;;;28.20;60.40;;;;;;4964593;29;20035;-74
2023/08/03 15:29:19;;;;;;;1.05;0.13;;;28.50;58.80;;;;;;4964750;29;20031;-74
2023/08/03 15:31:45;;;;;;;0.90;0.20;;;28.80;58.10;;;;;;4964224;29;20039;-74
2023/08/03 15:34:11;;;;;;;1.35;0.20;;;28.80;58.60;;;;;;4964530;29;20039;-74
2023/08/03 15:36:40;;;;;;;1.45;0.00;;;29.10;59.30;;;;;;4964678;29;20062;-73
2023/08/03 15:39:06;;;;;;;0.93;0.20;;;30.20;58.80;;;;;;4963854;28;20284;-73
2023/08/03 15:41:32;;;;;;;1.70;0.30;;;30.50;58.10;;;;;;4964388;29;20380;-74
2023/08/03 15:43:58;;;;;;;0.20;0.00;;;31.60;57.10;;;;;;4964337;28;20035;-73
2023/08/03 15:46:27;;;;;;;1.02;0.20;;;32.30;55.20;;;;;;4964467;29;20206;-74
2023/08/03 15:48:53;;;;;;;0.43;0.10;;;32.60;55.30;;;;;;4963939;28;20225;-75
2023/08/03 15:51:20;;;;;;;0.90;0.35;;;31.70;54.60;;;;;;4964557;28;20038;-75
2023/08/03 15:53:46;;;;;;;0.50;0.10;;;31.70;55.20;;;;;;4964243;28;20317;-76
2023/08/03 15:56:12;;;;;;;0.85;0.17;;;30.00;55.70;;;;;;4964362;28;20027;-73
2023/08/03 15:58:40;;;;;;;0.80;0.20;;;29.70;56.40;;;;;;4964258;28;20033;-73
2023/08/03 16:01:06;;;;;;;0.70;0.10;;;29.70;56.40;;;;;;4964143;28;20102;-73
2023/08/03 16:03:32;;;;;;;1.88;0.25;;;29.00;57.30;;;;;;4949522;28;20028;-73
2023/08/03 16:06:07;;;;;;;0.88;0.20;;;27.90;58.90;;;;;;4944478;29;20031;-74
2023/08/03 16:08:33;;;;;;;0.90;0.20;;;27.30;61.00;;;;;;4928068;29;20040;-74
2023/08/03 16:11:00;;;;;;;0.93;0.17;;;27.20;61.20;;;;;;4927815;29;20057;-72
2023/08/03 16:13:28;;;;;;;0.90;0.20;;;28.10;59.40;;;;;;4945295;29;20032;-74
2023/08/03 16:16:01;;;;;;;0.90;0.15;;;28.40;59.00;;;;;;4958184;29;20099;-73
2023/08/03 16:18:28;;;;;;;2.15;0.20;;;29.30;58.00;;;;;;4961303;29;20099;-73
2023/08/03 16:20:55;;;;;;;0.93;0.30;;;29.50;57.60;;;;;;4935472;29;20042;-73
2023/08/03 16:23:21;;;;;;;0.57;0.13;;;29.70;57.10;;;;;;4958282;29;20043;-72
2023/08/03 16:25:47;;;;;;;1.58;0.20;;;28.50;58.40;;;;;;4947216;29;20047;-74
2023/08/03 16:28:13;;;;;;;0.88;0.20;;;27.80;59.90;;;;;;4954363;28;20034;-73
2023/08/03 16:30:38;;;;;;;0.70;0.10;;;27.20;61.00;;;;;;4952404;29;20020;-76
2023/08/03 16:33:04;;;;;;;1.45;0.20;;;27.60;61.10;;;;;;4948212;29;20337;-75
2023/08/03 16:35:35;;;;;;;1.30;0.10;;;30.10;58.80;;;;;;4955004;29;20034;-75
2023/08/03 16:38:01;;;;;;;0.95;0.10;;;31.90;55.60;;;;;;4967453;28;20236;-75
2023/08/03 16:40:26;;;;;;;0.85;0.20;;;33.20;53.20;;;;;;4967415;28;20349;-75
2023/08/03 16:42:52;;;;;;;1.58;0.10;;;33.30;53.40;;;;;;4950257;29;20310;-76
2023/08/03 16:45:18;;;;;;;0.55;0.10;;;32.40;53.90;;;;;;4967628;28;20031;-73
2023/08/03 16:47:43;;;;;;;1.00;0.20;;;30.70;56.00;;;;;;4964543;29;20027;-75
2023/08/03 16:50:09;;;;;;;1.10;0.20;;;30.30;56.60;;;;;;4949441;29;20063;-75
2023/08/03 16:52:36;;;;;;;1.88;0.30;;;29.60;58.40;;;;;;4931395;29;20035;-73
2023/08/03 16:55:02;;;;;;;0.60;0.10;;;28.50;59.10;;;;;;4953718;29;20027;-73
2023/08/03 16:57:28;;;;;;;1.30;0.20;;;27.40;61.00;;;;;;4967588;29;20251;-74
2023/08/03 16:59:55;;;;;;;2.25;0.40;;;26.40;62.50;;;;;;4967065;29;20046;-74
2023/08/03 17:02:21;;;;;;;1.20;0.30;;;25.70;64.10;;;;;;4967512;29;20043;-73
2023/08/03 17:04:47;;;;;;;1.42;0.30;;;25.30;65.50;;;;;;4967595;29;20078;-74
2023/08/03 17:07:13;;;;;;;1.88;0.20;;;24.90;66.10;;;;;;4967013;29;20039;-74
2023/08/03 17:09:39;;;;;;;0.98;0.25;;;24.60;66.80;;;;;;4967297;29;20031;-74
2023/08/03 17:12:06;;;;;;;2.92;0.35;;;24.60;67.30;;;;;;4966805;29;20143;-77
2023/08/03 17:14:33;;;;;;;2.33;0.50;;;24.60;67.80;;;;;;4972221;28;20039;-75
2023/08/03 17:16:59;;;;;;;1.17;0.20;;;24.60;67.70;;;;;;4966356;29;20628;-77
2023/08/03 17:19:24;;;;;;;1.05;0.30;;;24.50;67.80;;;;;;4967458;29;20031;-75
2023/08/03 17:21:50;;;;;;;1.30;0.20;;;24.60;68.00;;;;;;4966672;29;20035;-75
2023/08/03 17:24:16;;;;;;;1.60;0.40;;;24.50;68.20;;;;;;4967098;29;20082;-77
2023/08/03 17:26:42;;;;;;;1.70;0.20;;;24.10;69.40;;;;;;4949871;29;20221;-74
2023/08/03 17:29:09;;;;;;;1.40;0.32;;;24.00;69.90;;;;;;4966766;29;20039;-74
2023/08/03 17:31:38;;;;;;;2.05;0.50;;;23.90;70.60;;;;;;4966817;29;20039;-73
2023/08/03 17:34:08;;;;;;;1.73;0.45;;;23.60;71.20;;;;;;4956510;29;20038;-74
2023/08/03 17:36:35;;;;;;;1.40;0.30;;;23.50;72.00;;;;;;4959261;29;20023;-74
2023/08/03 17:39:03;;;;;;;2.45;0.40;;;23.20;72.30;;;;;;4938780;28;20031;-73
2023/08/03 17:41:29;;;;;;;1.70;0.40;;;23.10;73.00;;;;;;4958440;29;20051;-73
2023/08/03 17:43:55;;;;;;;0.93;0.30;;;22.80;73.60;;;;;;4948881;29;20253;-72
2023/08/03 17:46:21;;;;;;;2.17;0.38;;;22.80;74.20;;;;;;4966829;29;20059;-73
2023/08/03 17:48:47;;;;;;;1.10;0.35;;;22.80;74.30;;;;;;4932396;29;20027;-75
2023/08/03 17:51:14;;;;;;;1.83;0.20;;;22.80;74.50;;;;;;4951180;29;20254;-73
2023/08/03 17:53:41;;;;;;;1.77;0.30;;;22.90;74.20;;;;;;4947238;29;20069;-75
2023/08/03 17:56:08;;;;;;;2.20;0.45;;;22.90;74.40;;;;;;4946734;29;20024;-71
2023/08/03 17:58:34;;;;;;;1.95;0.35;;;22.90;74.50;;;;;;4946986;29;20035;-73
2023/08/03 18:00:59;;;;;;;1.25;0.20;;;22.70;74.80;;;;;;4946602;29;20310;-73
2023/08/03 18:03:25;;;;;;;2.22;0.70;;;22.70;75.00;;;;;;4941049;29;20059;-73
2023/08/03 18:05:51;;;;;;;1.52;0.50;;;22.50;75.60;;;;;;4947055;29;20309;-73
2023/08/03 18:08:17;;;;;;;1.80;0.30;;;22.70;75.20;;;;;;4946321;29;20080;-73
2023/08/03 18:10:51;;;;;;;0.95;0.20;;;22.70;75.80;;;;;;4947061;29;20087;-75
2023/08/03 18:13:17;;;;;;;1.55;0.20;;;22.70;75.40;;;;;;4946357;29;20032;-74
2023/08/03 18:15:43;;;;;;;1.45;0.20;;;22.60;75.70;;;;;;4959331;29;20110;-74
2023/08/03 18:18:08;;;;;;;3.80;0.50;;;22.40;76.30;;;;;;4965631;29;20039;-73
2023/08/03 18:20:43;;;;;;;1.95;0.30;;;22.40;76.50;;;;;;4966282;29;20090;-73
2023/08/03 18:23:09;;;;;;;1.48;0.30;;;22.20;77.10;;;;;;4965727;29;20038;-74
2023/08/03 18:25:34;;;;;;;2.92;0.50;;;22.20;77.30;;;;;;4966328;29;20046;-75
2023/08/03 18:28:00;;;;;;;2.95;0.38;;;22.10;77.70;;;;;;4964653;29;20361;-74
2023/08/03 18:30:26;;;;;;;1.73;0.30;;;22.10;77.80;;;;;;4965826;29;20359;-73
2023/08/03 18:32:52;;;;;;;2.53;0.50;;;22.10;78.50;;;;;;4948545;29;20032;-73
2023/08/03 18:35:17;;;;;;;1.63;0.28;;;22.00;78.00;;;;;;4965047;29;20038;-73
2023/08/03 18:37:43;;;;;;;1.00;0.28;;;22.00;78.30;;;;;;4953908;28;20039;-74
2023/08/03 18:40:09;;;;;;;1.88;0.43;;;22.00;78.30;;;;;;4945560;29;20047;-73
2023/08/03 18:42:35;;;;;;;1.92;0.30;;;21.90;78.60;;;;;;4946507;29;20040;-74
2023/08/03 18:45:01;;;;;;;1.65;0.40;;;21.80;78.70;;;;;;4930874;29;20385;-75
2023/08/03 18:47:26;;;;;;;2.75;0.60;;;21.70;79.20;;;;;;4965732;29;20098;-74
2023/08/03 18:49:52;;;;;;;1.23;0.40;;;21.60;79.80;;;;;;4965362;29;20035;-74
2023/08/03 18:52:18;;;;;;;2.53;0.52;;;21.50;79.80;;;;;;4964270;28;20054;-73
2023/08/03 18:54:44;;;;;;;1.73;0.30;;;21.40;80.30;;;;;;4965941;29;20031;-74
2023/08/03 18:57:10;;;;;;;1.83;0.50;;;21.30;80.70;;;;;;4964661;29;20050;-74
2023/08/03 18:59:35;;;;;;;2.15;0.45;;;21.20;81.50;;;;;;4948134;29;20023;-74
2023/08/03 19:02:01;;;;;;;3.88;0.63;;;21.20;81.50;;;;;;4948052;29;20050;-73
2023/08/03 19:04:27;;;;;;;2.25;0.77;;;21.00;82.10;;;;;;4965345;29;20035;-74
2023/08/03 19:06:52;;;;;;;2.05;0.57;;;20.90;82.70;;;;;;4965130;29;20031;-74
2023/08/03 19:09:18;;;;;;;2.83;0.57;;;20.80;82.60;;;;;;4965082;29;20085;-73
2023/08/03 19:11:44;;;;;;;2.03;0.60;;;20.70;83.30;;;;;;4965359;29;20094;-74
2023/08/03 19:14:10;;;;;;;1.23;0.52;;;20.60;84.10;;;;;;4964868;29;20038;-74
2023/08/03 19:16:35;;;;;;;1.55;0.50;;;20.50;84.30;;;;;;4965556;29;20202;-73
2023/08/03 19:19:01;;;;;;;3.10;0.68;;;20.40;84.90;;;;;;4947615;29;20050;-74
2023/08/03 19:21:27;;;;;;;1.95;0.50;;;20.40;84.90;;;;;;4948130;29;20166;-74
2023/08/03 19:23:52;;;;;;;1.92;0.60;;;20.30;85.30;;;;;;4964987;29;20034;-73
2023/08/03 19:26:18;;;;;;;2.90;0.80;;;20.30;85.30;;;;;;4964462;29;20330;-74
2023/08/03 19:28:45;;;;;;;2.50;0.70;;;20.20;85.80;;;;;;4965043;29;20035;-73
2023/08/03 19:31:13;;;;;;;2.03;0.60;;;20.10;85.90;;;;;;4947562;29;20062;-74
2023/08/03 19:33:39;;;;;;;3.60;0.60;;;20.00;86.30;;;;;;4964774;29;20050;-73
2023/08/03 19:36:05;;;;;;;3.22;0.98;;;20.00;86.60;;;;;;4946538;29;20031;-74
2023/08/03 19:38:31;;;;;;;1.65;0.30;;;19.90;87.10;;;;;;4945698;29;20156;-74
2023/08/03 19:40:57;;;;;;;11.80;0.75;;;19.90;87.10;;;;;;4945295;29;20258;-73
2023/08/03 19:43:23;;;;;;;2.35;0.50;;;19.90;87.10;;;;;;4945725;29;20090;-75
2023/08/03 19:45:49;;;;;;;2.58;0.32;;;19.80;87.50;;;;;;4944261;29;20393;-74
2023/08/03 19:48:15;;;;;;;1.13;0.30;;;19.80;87.50;;;;;;4963023;29;20050;-75
2023/08/03 19:50:41;;;;;;;2.95;0.32;;;19.70;87.30;;;;;;4964394;29;20039;-73
2023/08/03 19:53:07;;;;;;;2.22;0.30;;;19.70;87.90;;;;;;4963885;29;20098;-73
2023/08/03 19:55:32;;;;;;;1.33;0.40;;;19.50;88.80;;;;;;4964644;29;20054;-74
2023/08/03 19:57:58;;;;;;;2.55;0.50;;;19.40;88.60;;;;;;4963786;29;20098;-74
2023/08/03 20:00:24;;;;;;;1.42;0.38;;;19.30;88.90;;;;;;4964304;29;20046;-74
2023/08/03 20:02:50;;;;;;;1.90;0.40;;;19.30;89.40;;;;;;4964385;28;20043;-74
2023/08/03 20:05:16;;;;;;;2.47;0.40;;;19.20;89.90;;;;;;4967646;29;20031;-74
2023/08/03 20:07:43;;;;;;;3.22;0.47;;;19.10;90.00;;;;;;4968492;29;20023;-75
2023/08/03 20:10:11;;;;;;;2.15;0.40;;;19.20;90.00;;;;;;4951178;29;20038;-75
2023/08/03 20:12:37;;;;;;;;;;;19.10;90.10;;;;;;4968838;29;20254;-75
2023/08/03 20:15:03;;;;;;;1.65;0.40;;;19.00;90.30;;;;;;4967807;29;19918;-75
2023/08/03 20:17:29;;;;;;;4.80;1.00;;;18.90;90.50;;;;;;4968508;29;20039;-75
2023/08/03 20:19:55;;;;;;;3.08;0.90;;;18.90;90.70;;;;;;4968384;29;20320;-76
2023/08/03 20:22:21;;;;;;;3.40;0.63;;;18.80;91.00;;;;;;4950731;29;20050;-75
2023/08/03 20:24:49;;;;;;;2.25;0.60;;;18.70;91.10;;;;;;4951095;29;20332;-73
2023/08/03 20:27:18;;;;;;;2.80;0.80;;;18.70;91.20;;;;;;4968011;29;20039;-75
2023/08/03 20:29:44;;;;;;;2.55;0.70;;;18.60;91.30;;;;;;4968128;29;20102;-74
2023/08/03 20:32:11;;;;;;;2.95;0.52;;;18.50;91.50;;;;;;4967868;29;20038;-75
2023/08/03 20:34:38;;;;;;;2.95;0.50;;;18.50;91.60;;;;;;4968076;29;20035;-74
2023/08/03 20:37:07;;;;;;;2.55;0.60;;;18.50;91.70;;;;;;4967571;29;20025;-75
2023/08/03 20:39:34;;;;;;;2.15;0.40;;;18.40;91.80;;;;;;4950741;29;20031;-75
2023/08/03 20:42:01;;;;;;;2.65;0.60;;;18.40;91.80;;;;;;4968155;28;20062;-74
2023/08/03 20:44:28;;;;;;;3.28;0.93;;;18.30;92.00;;;;;;4967667;28;20347;-74
2023/08/03 20:46:54;;;;;;;2.20;0.65;;;18.20;92.50;;;;;;4967538;28;20226;-74
2023/08/03 20:49:20;;;;;;;1.60;0.47;;;18.10;92.80;;;;;;4967323;29;20221;-75
2023/08/03 20:51:45;;;;;;;1.88;0.43;;;18.00;92.80;;;;;;4967840;28;20039;-75
2023/08/03 20:54:14;;;;;;;2.05;0.90;;;18.00;92.90;;;;;;4967539;29;20030;-76
2023/08/03 20:56:40;;;;;;;2.28;0.50;;;17.90;93.00;;;;;;4967667;28;20035;-75
2023/08/03 20:59:06;;;;;;;1.75;0.60;;;17.80;93.10;;;;;;4950201;28;20265;-74
2023/08/03 21:01:32;;;;;;;1.63;0.45;;;17.80;93.40;;;;;;4929158;29;20071;-75
2023/08/03 21:03:58;;;;;;;1.88;0.63;;;17.70;93.50;;;;;;4949630;29;20039;-76
2023/08/03 21:06:23;;;;;;;2.10;0.70;;;17.70;93.30;;;;;;4967452;29;20027;-76
2023/08/03 21:08:49;;;;;;;1.63;0.50;;;17.70;93.40;;;;;;4967319;29;20317;-75
2023/08/03 21:11:15;;;;;;;1.40;0.55;;;17.60;93.60;;;;;;4967171;29;20047;-76
2023/08/03 21:13:46;;;;;;;2.55;0.70;;;17.60;93.70;;;;;;4966833;28;20257;-75
2023/08/03 21:16:13;;;;;;;2.08;0.70;;;17.50;93.90;;;;;;4966861;29;20090;-74
2023/08/03 21:18:40;;;;;;;2.25;0.68;;;17.60;93.90;;;;;;4948806;29;20269;-77
2023/08/03 21:21:18;;;;;;;1.95;0.50;;;17.60;93.90;;;;;;4948000;29;20036;-75
2023/08/03 21:23:45;;;;;;;2.55;0.60;;;17.60;94.00;;;;;;4947981;29;20027;-74
2023/08/03 21:26:11;;;;;;;1.30;0.50;;;17.60;94.10;;;;;;4947443;29;20093;-75
2023/08/03 21:28:37;;;;;;;3.17;0.68;;;17.50;94.20;;;;;;4948144;29;20036;-73
2023/08/03 21:31:03;;;;;;;2.03;0.50;;;17.50;94.30;;;;;;4948180;29;20039;-75
2023/08/03 21:33:30;;;;;;;2.47;0.65;;;17.40;94.30;;;;;;4930776;29;20047;-76
2023/08/03 21:35:57;;;;;;;3.50;0.50;;;17.40;94.60;;;;;;4957470;29;20082;-75
2023/08/03 21:38:22;;;;;;;2.70;0.60;;;17.40;94.70;;;;;;4966684;28;20027;-75
2023/08/03 21:40:49;;;;;;;1.75;0.70;;;17.30;94.70;;;;;;4966709;28;20190;-74
2023/08/03 21:43:16;;;;;;;3.83;1.00;;;17.30;94.90;;;;;;4966272;28;20276;-73
2023/08/03 21:45:48;;;;;;;3.40;0.52;;;17.30;94.90;;;;;;4967069;29;20095;-74
2023/08/03 21:48:14;;;;;;;1.90;0.55;;;17.30;95.00;;;;;;4966498;28;20098;-75
2023/08/03 21:50:40;;;;;;;1.60;0.40;;;17.30;95.10;;;;;;4966877;28;20027;-74
2023/08/03 21:53:06;;;;;;;3.47;0.50;;;17.20;95.10;;;;;;4966880;28;20031;-76
2023/08/03 21:55:35;;;;;;;1.98;0.50;;;17.20;95.30;;;;;;4949847;29;20031;-74
2023/08/03 21:58:01;;;;;;;3.17;0.75;;;17.20;95.40;;;;;;4961596;28;20094;-75